Terminal Aerodrome Forecast
Issued by NWS Wilmington, NC

Home | Current Version | Previous Version | Text Only | Print | Product List | Glossary On
Versions: 1 2 3 4 5 6 7 8 9 10 11 12 13 14
000
FTUS42 KILM 012333
TAFLBT
TAF
KLBT 012333Z 0200/0224 20003KT P6SM VCTS SCT050CB
      TEMPO 0200/0204 VRB10G25KT 3SM -TSRA SCT030 BKN050CB
     FM020800 00000KT 4SM BR BKN006
     FM021300 20005KT P6SM BKN020
     FM021700 23005KT P6SM VCSH SCT025 BKN050=

USA.gov is the U.S. government's official web portal to all federal, state and local government web resources and services.